Main page

Airports :

London-Southend, England

London Southend Airport

latitude: 51-34N, longitude: 000-42E, elevation: 15 m

Current weather observation

The report was made 36 minutes ago, at 08:50 UTC
Wind 13 kt from the West/Southwest
Temperature 4°C
Humidity 75%
Pressure 1014 hPa
Visibility 10 km or more
no clouds below 1500 m and no cumulonimbus

METAR: EGMC 280850Z 25013KT CAVOK 04/M00 Q1014

Time: 09:26 (09:26 UTC)


The report was made 1 hour and 24 minutes ago, at 08:02 UTC
Forecast valid from 28 at 09 UTC to 28 at 18 UTC
Wind 14 kt from the West/Southwest
Visibility 10 km or more
Few clouds at a height of 4000 ft
from 28 at 12 UTC to 28 at 15 UTC
Wind 15 kt from the Southwest with gusts up to 25 kt
Probability 30% :
from 28 at 16 UTC to 28 at 18 UTC
Wind 20 kt from the Southwest with gusts up to 35 kt
Visibility: 7000 m
Broken clouds at a height of 1400 ft

TAF: EGMC 280802Z 2809/2818 25014KT 9999 FEW040 BECMG 2812/2815 23015G25KT PROB30 TEMPO 2816/2818 23020G35KT 7000 RA BKN014


Weather observations and forecasts of more than 4000 airports (METAR and TAF reports).

The available stations are represented by yellow and red dots on the map.

Hover mouse over dot to see the name of the station.

Then click to see weather observations and forecasts.

To change the map : click on the green buttons with a black cross to zoom in, on the green button with a dash to zoom out, or on the green arrows for adjacent maps.